Detall de PIREP

Printer-friendly versionPDF version

[2015/06/25 07:37:00]
Flight IATA:CT1005
Pilot Number:011
Company ICAO:CAT
Aircraft Type:B738/F
PAX:160
Departing Airport: ELLX
Destination Airport: LMML
Alternate Airport:LICJ
Online: VATSIM
Route:GTQ UN852 LASAT UN491 BEGAR UL15 RIPUS UN850 IXITO UL50 ELB UL12 EKOLA L12 GZO
Flight Level:F390
No Slew and time accel
No pause
Crash detect
Detect pilot in Cockpit between each 30 and 45 minutes
07:37 Zero fuel Weight: 134990 Lbs, Fuel Weight: 22733 Lbs
07:37 VATSIM:ELLX 250720Z VRB02KT CAVOK 16/10 Q1023 NOSIG
07:37 VATSIM:LMML 250715Z 07011KT 9999 FEW009 24/20 Q1017 NOSIG
07:41 Parking Brakes off
07:48 Take-off
07:48 Take off Weight: 156848 Lbs
07:48 Wind: 256º @ 001 Knots Heading: 239º
07:48 POS N49º 37´ 37´´ E006º 12´ 46´´
07:48 Flaps:5 at 172 Knots
07:48 Gear Up: 173 Knots
07:49 Flaps:4 at 205 Knots
07:49 Flaps:3 at 212 Knots
07:50 Flaps:2 at 228 Knots
07:50 Flaps:0 at 229 Knots
08:03 Wind:105º@006 Knots Heading: 181º Ground Speed: 342 Knots Altitude 34494 ft
08:07 TOC
08:07 Fuel Weight: 18228 Lb
08:18 Wind:009º@003 Knots Heading: 136º Ground Speed: 453 Knots Altitude 39314 ft
08:33 Wind:130º@010 Knots Heading: 174º Ground Speed: 448 Knots Altitude 39288 ft
08:48 Wind:131º@001 Knots Heading: 136º Ground Speed: 451 Knots Altitude 39255 ft
09:03 Wind:053º@027 Knots Heading: 156º Ground Speed: 464 Knots Altitude 39206 ft
09:18 Wind:352º@012 Knots Heading: 158º Ground Speed: 471 Knots Altitude 39186 ft
09:33 Wind:011º@024 Knots Heading: 155º Ground Speed: 479 Knots Altitude 39156 ft
09:40 TOD
09:40 Fuel Weight: 11197 Lb
09:48 Wind:063º@036 Knots Heading: 153º Ground Speed: 420 Knots Altitude 25816 ft
10:01 Flaps:1 at 258 Knots
10:01 Flaps:2 at 257 Knots
10:01 Flaps:3 at 254 Knots
10:01 Flaps:4 at 253 Knots
10:02 Flaps:5 at 200 Knots
10:03 Wind:099º@016 Knots Heading: 117º Ground Speed: 178 Knots Altitude 2992 ft
10:03 Flaps:6 at 183 Knots
10:03 Gear Down: 180 Knots
10:04 Flaps:7 at 153 Knots
10:04 Flaps:8 at 148 Knots
10:07 Gear Up: 155 Knots
10:07 Flaps:6 at 158 Knots
10:07 Flaps:5 at 158 Knots
10:07 Flaps:4 at 159 Knots
10:08 Flaps:3 at 309 Knots
10:11 Flaps:4 at 206 Knots
10:11 Flaps:5 at 198 Knots
10:16 Flaps:6 at 201 Knots
10:16 Gear Down: 199 Knots
10:17 Flaps:7 at 171 Knots
10:17 Flaps:8 at 159 Knots
10:18 Wind:099º@016 Knots Heading: 080º Ground Speed: 148 Knots Altitude 2214 ft
10:22 TouchDown:Rate -485 ft/min Speed: 123 Knots
10:22 VATSIM:LMML 250945Z 10016KT 9999 FEW011 26/20 Q1017 NOSIG
10:22 Land
10:22 Wind:099º@016 Knots
10:22 Heading: 135º
10:22 Flight Duration: 02:34
10:22 Landing Weight: 142427 Lbs
10:22 POS N35º 51´ 10´´ E014º 29´ 06´´
10:24 Parking brakes on
10:24 Block to Block Duration: 02:43
10:24 Final Fuel: 7378 Lbls
10:24 Spent Fuel: 15354 Lbls
10:24 Flight Length: 902 NM
10:24 TOD Land Length: 201 NM

Exportar CSV

Powered by Drupal - Modified by Danger4k